sensor_id;sensor_type;location;lat;lon;timestamp;P1;durP1;ratioP1;P2;durP2;ratioP2
21254;SDS011;10785;50.674;17.954;2023-02-12T00:02:11;4.80;;;4.50;;
21254;SDS011;10785;50.674;17.954;2023-02-12T00:04:41;3.30;;;3.17;;
21254;SDS011;10785;50.674;17.954;2023-02-12T00:07:10;3.10;;;2.90;;
21254;SDS011;10785;50.674;17.954;2023-02-12T00:09:39;7.05;;;4.57;;
21254;SDS011;10785;50.674;17.954;2023-02-12T00:12:07;4.03;;;3.83;;
21254;SDS011;10785;50.674;17.954;2023-02-12T00:14:36;2.83;;;2.72;;
21254;SDS011;10785;50.674;17.954;2023-02-12T00:17:05;11.23;;;4.90;;
21254;SDS011;10785;50.674;17.954;2023-02-12T00:19:34;15.65;;;5.15;;
21254;SDS011;10785;50.674;17.954;2023-02-12T00:22:04;7.25;;;3.88;;
21254;SDS011;10785;50.674;17.954;2023-02-12T00:24:32;2.55;;;2.45;;
21254;SDS011;10785;50.674;17.954;2023-02-12T00:27:01;6.15;;;5.50;;
21254;SDS011;10785;50.674;17.954;2023-02-12T00:29:30;3.60;;;3.35;;
21254;SDS011;10785;50.674;17.954;2023-02-12T00:31:58;4.10;;;3.78;;
21254;SDS011;10785;50.674;17.954;2023-02-12T00:34:27;2.58;;;2.47;;
21254;SDS011;10785;50.674;17.954;2023-02-12T00:36:56;2.60;;;2.50;;
21254;SDS011;10785;50.674;17.954;2023-02-12T00:39:26;4.55;;;3.78;;
21254;SDS011;10785;50.674;17.954;2023-02-12T00:41:55;2.35;;;2.25;;
21254;SDS011;10785;50.674;17.954;2023-02-12T00:44:24;5.20;;;4.90;;
21254;SDS011;10785;50.674;17.954;2023-02-12T00:46:52;4.78;;;4.15;;
21254;SDS011;10785;50.674;17.954;2023-02-12T00:49:21;3.63;;;3.42;;
21254;SDS011;10785;50.674;17.954;2023-02-12T00:51:49;5.63;;;5.32;;
21254;SDS011;10785;50.674;17.954;2023-02-12T00:54:18;3.47;;;3.17;;
21254;SDS011;10785;50.674;17.954;2023-02-12T00:56:48;3.55;;;3.08;;
21254;SDS011;10785;50.674;17.954;2023-02-12T00:59:16;4.22;;;3.83;;
21254;SDS011;10785;50.674;17.954;2023-02-12T01:01:45;2.65;;;2.55;;
21254;SDS011;10785;50.674;17.954;2023-02-12T01:04:14;3.33;;;3.20;;
21254;SDS011;10785;50.674;17.954;2023-02-12T01:06:42;3.85;;;3.55;;
21254;SDS011;10785;50.674;17.954;2023-02-12T01:09:11;5.90;;;4.07;;
21254;SDS011;10785;50.674;17.954;2023-02-12T01:11:40;7.43;;;6.50;;
21254;SDS011;10785;50.674;17.954;2023-02-12T01:14:10;4.57;;;4.28;;
21254;SDS011;10785;50.674;17.954;2023-02-12T01:16:39;9.98;;;6.03;;
21254;SDS011;10785;50.674;17.954;2023-02-12T01:19:09;5.57;;;5.07;;
21254;SDS011;10785;50.674;17.954;2023-02-12T01:21:38;4.25;;;4.00;;
21254;SDS011;10785;50.674;17.954;2023-02-12T01:24:07;5.85;;;5.43;;
21254;SDS011;10785;50.674;17.954;2023-02-12T01:26:36;3.30;;;3.20;;
21254;SDS011;10785;50.674;17.954;2023-02-12T01:29:05;4.63;;;3.28;;
21254;SDS011;10785;50.674;17.954;2023-02-12T01:31:37;4.93;;;4.05;;
21254;SDS011;10785;50.674;17.954;2023-02-12T01:34:06;2.42;;;2.25;;
21254;SDS011;10785;50.674;17.954;2023-02-12T01:36:36;4.05;;;3.75;;
21254;SDS011;10785;50.674;17.954;2023-02-12T01:39:05;8.70;;;3.13;;
21254;SDS011;10785;50.674;17.954;2023-02-12T01:41:36;3.05;;;2.85;;
21254;SDS011;10785;50.674;17.954;2023-02-12T01:44:08;5.30;;;3.83;;
21254;SDS011;10785;50.674;17.954;2023-02-12T01:46:41;11.73;;;4.53;;
21254;SDS011;10785;50.674;17.954;2023-02-12T01:49:14;9.77;;;5.43;;
21254;SDS011;10785;50.674;17.954;2023-02-12T01:51:45;18.35;;;5.20;;
21254;SDS011;10785;50.674;17.954;2023-02-12T01:54:17;3.08;;;2.88;;
21254;SDS011;10785;50.674;17.954;2023-02-12T01:56:47;3.53;;;3.33;;
21254;SDS011;10785;50.674;17.954;2023-02-12T01:59:16;2.50;;;2.40;;
21254;SDS011;10785;50.674;17.954;2023-02-12T02:01:49;1.98;;;1.90;;
21254;SDS011;10785;50.674;17.954;2023-02-12T02:04:20;18.05;;;6.40;;
21254;SDS011;10785;50.674;17.954;2023-02-12T02:06:57;2.72;;;2.63;;
21254;SDS011;10785;50.674;17.954;2023-02-12T02:09:29;3.78;;;3.55;;
21254;SDS011;10785;50.674;17.954;2023-02-12T02:12:01;2.85;;;2.70;;
21254;SDS011;10785;50.674;17.954;2023-02-12T02:14:47;11.63;;;4.35;;
21254;SDS011;10785;50.674;17.954;2023-02-12T02:17:26;2.20;;;2.10;;
21254;SDS011;10785;50.674;17.954;2023-02-12T02:26:30;3.08;;;2.85;;
21254;SDS011;10785;50.674;17.954;2023-02-12T02:29:20;2.38;;;2.28;;
21254;SDS011;10785;50.674;17.954;2023-02-12T02:32:12;3.63;;;3.42;;
21254;SDS011;10785;50.674;17.954;2023-02-12T02:34:46;5.07;;;4.68;;
21254;SDS011;10785;50.674;17.954;2023-02-12T02:37:24;2.78;;;2.67;;
21254;SDS011;10785;50.674;17.954;2023-02-12T02:39:58;4.63;;;4.30;;
21254;SDS011;10785;50.674;17.954;2023-02-12T02:42:36;4.10;;;3.80;;
21254;SDS011;10785;50.674;17.954;2023-02-12T02:45:10;5.35;;;4.95;;
21254;SDS011;10785;50.674;17.954;2023-02-12T02:47:42;11.18;;;3.53;;
21254;SDS011;10785;50.674;17.954;2023-02-12T02:50:13;4.13;;;3.92;;
21254;SDS011;10785;50.674;17.954;2023-02-12T02:52:46;2.42;;;2.33;;
21254;SDS011;10785;50.674;17.954;2023-02-12T02:55:19;1.80;;;1.77;;
21254;SDS011;10785;50.674;17.954;2023-02-12T02:57:52;21.90;;;3.38;;
21254;SDS011;10785;50.674;17.954;2023-02-12T03:00:25;3.15;;;2.95;;
21254;SDS011;10785;50.674;17.954;2023-02-12T03:03:04;5.85;;;4.45;;
21254;SDS011;10785;50.674;17.954;2023-02-12T03:05:37;5.93;;;4.57;;
21254;SDS011;10785;50.674;17.954;2023-02-12T03:08:09;11.38;;;3.22;;
21254;SDS011;10785;50.674;17.954;2023-02-12T03:10:42;2.15;;;2.05;;
21254;SDS011;10785;50.674;17.954;2023-02-12T03:13:15;1.73;;;1.63;;
21254;SDS011;10785;50.674;17.954;2023-02-12T03:15:49;4.20;;;3.90;;
21254;SDS011;10785;50.674;17.954;2023-02-12T03:18:24;5.40;;;4.13;;
21254;SDS011;10785;50.674;17.954;2023-02-12T03:20:58;7.10;;;5.13;;
21254;SDS011;10785;50.674;17.954;2023-02-12T03:23:31;5.93;;;3.90;;
21254;SDS011;10785;50.674;17.954;2023-02-12T03:26:06;4.57;;;4.22;;
21254;SDS011;10785;50.674;17.954;2023-02-12T03:28:38;3.50;;;3.30;;
21254;SDS011;10785;50.674;17.954;2023-02-12T03:31:09;4.30;;;4.05;;
21254;SDS011;10785;50.674;17.954;2023-02-12T03:33:46;7.72;;;4.25;;
21254;SDS011;10785;50.674;17.954;2023-02-12T03:36:28;2.55;;;2.45;;
21254;SDS011;10785;50.674;17.954;2023-02-12T03:39:03;3.35;;;3.10;;
21254;SDS011;10785;50.674;17.954;2023-02-12T03:41:40;3.78;;;3.05;;
21254;SDS011;10785;50.674;17.954;2023-02-12T03:44:14;3.38;;;3.17;;
21254;SDS011;10785;50.674;17.954;2023-02-12T03:46:49;3.50;;;3.28;;
21254;SDS011;10785;50.674;17.954;2023-02-12T03:49:29;2.65;;;2.55;;
21254;SDS011;10785;50.674;17.954;2023-02-12T03:52:03;3.83;;;3.63;;
21254;SDS011;10785;50.674;17.954;2023-02-12T03:54:32;2.97;;;2.88;;
21254;SDS011;10785;50.674;17.954;2023-02-12T03:57:04;1.75;;;1.65;;
21254;SDS011;10785;50.674;17.954;2023-02-12T03:59:36;3.20;;;3.05;;
21254;SDS011;10785;50.674;17.954;2023-02-12T04:02:06;2.90;;;2.75;;
21254;SDS011;10785;50.674;17.954;2023-02-12T04:04:36;2.95;;;2.85;;
21254;SDS011;10785;50.674;17.954;2023-02-12T04:07:06;5.20;;;3.70;;
21254;SDS011;10785;50.674;17.954;2023-02-12T04:09:34;3.72;;;3.50;;
21254;SDS011;10785;50.674;17.954;2023-02-12T04:12:08;4.82;;;4.43;;
21254;SDS011;10785;50.674;17.954;2023-02-12T05:29:04;3.45;;;3.15;;
21254;SDS011;10785;50.674;17.954;2023-02-12T05:31:33;1.40;;;1.40;;
21254;SDS011;10785;50.674;17.954;2023-02-12T05:34:02;2.42;;;2.33;;
21254;SDS011;10785;50.674;17.954;2023-02-12T05:36:30;2.88;;;2.75;;
21254;SDS011;10785;50.674;17.954;2023-02-12T05:38:59;2.75;;;2.65;;
21254;SDS011;10785;50.674;17.954;2023-02-12T05:44:10;7.60;;;4.85;;
21254;SDS011;10785;50.674;17.954;2023-02-12T05:46:40;6.13;;;4.32;;
21254;SDS011;10785;50.674;17.954;2023-02-12T05:49:09;1.92;;;1.85;;
21254;SDS011;10785;50.674;17.954;2023-02-12T05:51:38;3.25;;;3.05;;
21254;SDS011;10785;50.674;17.954;2023-02-12T05:54:07;3.85;;;3.58;;
21254;SDS011;10785;50.674;17.954;2023-02-12T05:56:38;3.28;;;3.08;;
21254;SDS011;10785;50.674;17.954;2023-02-12T05:59:13;3.08;;;2.97;;
21254;SDS011;10785;50.674;17.954;2023-02-12T06:01:44;2.30;;;2.20;;
21254;SDS011;10785;50.674;17.954;2023-02-12T06:04:14;13.35;;;6.38;;
21254;SDS011;10785;50.674;17.954;2023-02-12T06:06:44;2.40;;;2.20;;
21254;SDS011;10785;50.674;17.954;2023-02-12T06:09:13;1.88;;;1.83;;
21254;SDS011;10785;50.674;17.954;2023-02-12T06:11:42;4.95;;;4.65;;
21254;SDS011;10785;50.674;17.954;2023-02-12T06:14:13;4.30;;;4.10;;
21254;SDS011;10785;50.674;17.954;2023-02-12T06:16:43;4.97;;;4.68;;
21254;SDS011;10785;50.674;17.954;2023-02-12T06:19:13;2.65;;;2.55;;
21254;SDS011;10785;50.674;17.954;2023-02-12T06:21:42;2.33;;;2.22;;
21254;SDS011;10785;50.674;17.954;2023-02-12T06:24:11;4.95;;;4.55;;
21254;SDS011;10785;50.674;17.954;2023-02-12T06:26:41;1.90;;;1.80;;
21254;SDS011;10785;50.674;17.954;2023-02-12T06:29:10;3.75;;;3.40;;
21254;SDS011;10785;50.674;17.954;2023-02-12T06:31:41;3.20;;;3.05;;
21254;SDS011;10785;50.674;17.954;2023-02-12T06:34:10;3.67;;;3.42;;
21254;SDS011;10785;50.674;17.954;2023-02-12T06:36:42;2.80;;;2.58;;
21254;SDS011;10785;50.674;17.954;2023-02-12T06:39:13;2.55;;;2.45;;
21254;SDS011;10785;50.674;17.954;2023-02-12T07:52:48;19.92;;;3.95;;
21254;SDS011;10785;50.674;17.954;2023-02-12T07:55:17;2.47;;;2.38;;
21254;SDS011;10785;50.674;17.954;2023-02-12T07:57:45;4.30;;;4.05;;
21254;SDS011;10785;50.674;17.954;2023-02-12T08:00:14;1.95;;;1.80;;
21254;SDS011;10785;50.674;17.954;2023-02-12T08:02:49;2.25;;;2.15;;
21254;SDS011;10785;50.674;17.954;2023-02-12T08:05:18;1.73;;;1.73;;
21254;SDS011;10785;50.674;17.954;2023-02-12T08:07:48;4.53;;;3.50;;
21254;SDS011;10785;50.674;17.954;2023-02-12T08:10:17;2.92;;;2.70;;
21254;SDS011;10785;50.674;17.954;2023-02-12T08:12:48;1.20;;;1.20;;
21254;SDS011;10785;50.674;17.954;2023-02-12T08:15:16;1.23;;;1.23;;
21254;SDS011;10785;50.674;17.954;2023-02-12T08:17:45;2.90;;;2.70;;
21254;SDS011;10785;50.674;17.954;2023-02-12T08:20:14;2.55;;;2.45;;
21254;SDS011;10785;50.674;17.954;2023-02-12T08:22:42;5.93;;;2.38;;
21254;SDS011;10785;50.674;17.954;2023-02-12T08:25:13;2.10;;;2.00;;
21254;SDS011;10785;50.674;17.954;2023-02-12T08:27:41;1.70;;;1.63;;
21254;SDS011;10785;50.674;17.954;2023-02-12T08:30:10;33.65;;;3.97;;
21254;SDS011;10785;50.674;17.954;2023-02-12T08:32:41;3.10;;;2.92;;
21254;SDS011;10785;50.674;17.954;2023-02-12T08:35:09;3.92;;;3.22;;
21254;SDS011;10785;50.674;17.954;2023-02-12T08:37:38;3.35;;;3.15;;
21254;SDS011;10785;50.674;17.954;2023-02-12T08:40:07;2.50;;;2.40;;
21254;SDS011;10785;50.674;17.954;2023-02-12T08:42:40;34.40;;;3.55;;
21254;SDS011;10785;50.674;17.954;2023-02-12T08:45:09;10.63;;;2.65;;
21254;SDS011;10785;50.674;17.954;2023-02-12T08:47:37;1.55;;;1.55;;
21254;SDS011;10785;50.674;17.954;2023-02-12T08:50:06;1.08;;;1.08;;
21254;SDS011;10785;50.674;17.954;2023-02-12T08:52:35;2.28;;;2.17;;
21254;SDS011;10785;50.674;17.954;2023-02-12T08:55:04;1.83;;;1.73;;
21254;SDS011;10785;50.674;17.954;2023-02-12T08:57:33;2.08;;;1.88;;
21254;SDS011;10785;50.674;17.954;2023-02-12T09:00:04;3.05;;;2.25;;
21254;SDS011;10785;50.674;17.954;2023-02-12T09:02:33;2.38;;;2.28;;
21254;SDS011;10785;50.674;17.954;2023-02-12T09:05:02;1.58;;;1.48;;
21254;SDS011;10785;50.674;17.954;2023-02-12T09:07:31;1.70;;;1.70;;
21254;SDS011;10785;50.674;17.954;2023-02-12T09:10:00;2.15;;;2.05;;
21254;SDS011;10785;50.674;17.954;2023-02-12T09:12:29;3.58;;;2.67;;
21254;SDS011;10785;50.674;17.954;2023-02-12T09:14:57;2.10;;;2.00;;
21254;SDS011;10785;50.674;17.954;2023-02-12T09:17:30;3.40;;;3.00;;
21254;SDS011;10785;50.674;17.954;2023-02-12T09:19:58;1.67;;;1.58;;
21254;SDS011;10785;50.674;17.954;2023-02-12T09:22:28;1.40;;;1.30;;
21254;SDS011;10785;50.674;17.954;2023-02-12T09:24:57;1.25;;;1.25;;
21254;SDS011;10785;50.674;17.954;2023-02-12T09:27:26;2.58;;;2.38;;
21254;SDS011;10785;50.674;17.954;2023-02-12T09:29:57;1.02;;;1.02;;
21254;SDS011;10785;50.674;17.954;2023-02-12T09:32:25;1.63;;;1.35;;
21254;SDS011;10785;50.674;17.954;2023-02-12T09:34:55;1.00;;;1.00;;
21254;SDS011;10785;50.674;17.954;2023-02-12T09:37:24;1.20;;;1.20;;
21254;SDS011;10785;50.674;17.954;2023-02-12T09:39:52;5.82;;;2.45;;
21254;SDS011;10785;50.674;17.954;2023-02-12T09:42:27;1.30;;;1.30;;
21254;SDS011;10785;50.674;17.954;2023-02-12T09:45:09;1.95;;;1.85;;
21254;SDS011;10785;50.674;17.954;2023-02-12T09:47:45;2.05;;;1.55;;
21254;SDS011;10785;50.674;17.954;2023-02-12T09:50:28;2.85;;;2.65;;
21254;SDS011;10785;50.674;17.954;2023-02-12T09:53:07;2.38;;;2.20;;
21254;SDS011;10785;50.674;17.954;2023-02-12T09:55:41;4.68;;;4.22;;
21254;SDS011;10785;50.674;17.954;2023-02-12T09:58:12;1.27;;;1.27;;
21254;SDS011;10785;50.674;17.954;2023-02-12T10:00:44;10.35;;;1.80;;
21254;SDS011;10785;50.674;17.954;2023-02-12T10:03:13;6.18;;;3.00;;
21254;SDS011;10785;50.674;17.954;2023-02-12T10:05:46;2.10;;;2.00;;
21254;SDS011;10785;50.674;17.954;2023-02-12T10:11:19;5.65;;;1.83;;
21254;SDS011;10785;50.674;17.954;2023-02-12T10:13:59;2.33;;;2.22;;
21254;SDS011;10785;50.674;17.954;2023-02-12T10:16:42;1.63;;;1.40;;
21254;SDS011;10785;50.674;17.954;2023-02-12T10:19:24;2.30;;;2.20;;
21254;SDS011;10785;50.674;17.954;2023-02-12T10:22:06;2.70;;;2.33;;
21254;SDS011;10785;50.674;17.954;2023-02-12T10:24:49;3.42;;;2.60;;
21254;SDS011;10785;50.674;17.954;2023-02-12T10:27:34;2.40;;;2.25;;
21254;SDS011;10785;50.674;17.954;2023-02-12T10:30:13;3.33;;;2.42;;
21254;SDS011;10785;50.674;17.954;2023-02-12T10:32:45;9.90;;;4.28;;
21254;SDS011;10785;50.674;17.954;2023-02-12T10:35:24;1.55;;;1.45;;
21254;SDS011;10785;50.674;17.954;2023-02-12T10:37:56;8.88;;;3.60;;
21254;SDS011;10785;50.674;17.954;2023-02-12T10:40:30;2.88;;;2.67;;
21254;SDS011;10785;50.674;17.954;2023-02-12T10:43:00;2.47;;;2.35;;
21254;SDS011;10785;50.674;17.954;2023-02-12T10:45:31;2.92;;;2.65;;
21254;SDS011;10785;50.674;17.954;2023-02-12T10:48:03;5.85;;;3.35;;
21254;SDS011;10785;50.674;17.954;2023-02-12T10:50:44;7.78;;;5.75;;
21254;SDS011;10785;50.674;17.954;2023-02-12T10:53:21;4.30;;;4.00;;
21254;SDS011;10785;50.674;17.954;2023-02-12T10:56:03;3.60;;;3.03;;
21254;SDS011;10785;50.674;17.954;2023-02-12T10:58:53;4.50;;;2.45;;
21254;SDS011;10785;50.674;17.954;2023-02-12T11:01:25;1.80;;;1.70;;
21254;SDS011;10785;50.674;17.954;2023-02-12T11:03:56;26.75;;;5.07;;
21254;SDS011;10785;50.674;17.954;2023-02-12T11:06:27;2.78;;;2.58;;
21254;SDS011;10785;50.674;17.954;2023-02-12T11:08:58;2.80;;;2.63;;
21254;SDS011;10785;50.674;17.954;2023-02-12T11:11:27;2.33;;;2.22;;
21254;SDS011;10785;50.674;17.954;2023-02-12T11:14:15;2.45;;;2.35;;
21254;SDS011;10785;50.674;17.954;2023-02-12T11:16:50;12.52;;;3.40;;
21254;SDS011;10785;50.674;17.954;2023-02-12T11:19:20;2.92;;;2.78;;
21254;SDS011;10785;50.674;17.954;2023-02-12T11:21:51;3.22;;;3.03;;
21254;SDS011;10785;50.674;17.954;2023-02-12T11:24:32;3.85;;;2.58;;
21254;SDS011;10785;50.674;17.954;2023-02-12T11:27:10;2.00;;;1.90;;
21254;SDS011;10785;50.674;17.954;2023-02-12T11:29:46;4.82;;;4.43;;
21254;SDS011;10785;50.674;17.954;2023-02-12T11:32:39;2.85;;;2.65;;
21254;SDS011;10785;50.674;17.954;2023-02-12T11:35:10;5.10;;;2.47;;
21254;SDS011;10785;50.674;17.954;2023-02-12T11:37:41;4.03;;;3.33;;
21254;SDS011;10785;50.674;17.954;2023-02-12T11:40:17;5.28;;;3.40;;
21254;SDS011;10785;50.674;17.954;2023-02-12T11:42:48;6.93;;;4.18;;
21254;SDS011;10785;50.674;17.954;2023-02-12T11:45:20;3.63;;;3.42;;
21254;SDS011;10785;50.674;17.954;2023-02-12T11:47:52;3.05;;;2.83;;
21254;SDS011;10785;50.674;17.954;2023-02-12T11:50:23;3.50;;;3.20;;
21254;SDS011;10785;50.674;17.954;2023-02-12T11:52:55;4.07;;;3.80;;
21254;SDS011;10785;50.674;17.954;2023-02-12T11:55:29;4.85;;;4.55;;
21254;SDS011;10785;50.674;17.954;2023-02-12T11:58:02;3.97;;;2.90;;
21254;SDS011;10785;50.674;17.954;2023-02-12T12:00:41;5.55;;;3.47;;
21254;SDS011;10785;50.674;17.954;2023-02-12T12:03:17;5.93;;;3.72;;
21254;SDS011;10785;50.674;17.954;2023-02-12T12:05:51;4.57;;;3.17;;
21254;SDS011;10785;50.674;17.954;2023-02-12T12:08:25;3.38;;;3.08;;
21254;SDS011;10785;50.674;17.954;2023-02-12T12:10:59;7.20;;;2.78;;
21254;SDS011;10785;50.674;17.954;2023-02-12T12:13:38;3.15;;;2.95;;
21254;SDS011;10785;50.674;17.954;2023-02-12T12:16:14;6.10;;;4.40;;
21254;SDS011;10785;50.674;17.954;2023-02-12T12:19:08;5.15;;;2.88;;
21254;SDS011;10785;50.674;17.954;2023-02-12T12:22:02;2.95;;;2.75;;
21254;SDS011;10785;50.674;17.954;2023-02-12T12:24:37;7.13;;;2.80;;
21254;SDS011;10785;50.674;17.954;2023-02-12T12:27:13;6.75;;;2.92;;
21254;SDS011;10785;50.674;17.954;2023-02-12T12:30:07;5.40;;;3.25;;
21254;SDS011;10785;50.674;17.954;2023-02-12T12:32:44;4.53;;;4.15;;
21254;SDS011;10785;50.674;17.954;2023-02-12T12:35:16;2.45;;;2.33;;
21254;SDS011;10785;50.674;17.954;2023-02-12T12:37:50;3.70;;;3.30;;
21254;SDS011;10785;50.674;17.954;2023-02-12T12:40:40;2.08;;;1.95;;
21254;SDS011;10785;50.674;17.954;2023-02-12T12:43:19;2.13;;;1.98;;
21254;SDS011;10785;50.674;17.954;2023-02-12T12:45:56;3.85;;;3.55;;
21254;SDS011;10785;50.674;17.954;2023-02-12T12:52:09;3.40;;;3.20;;
21254;SDS011;10785;50.674;17.954;2023-02-12T12:54:54;3.05;;;2.22;;
21254;SDS011;10785;50.674;17.954;2023-02-12T12:57:45;3.78;;;2.38;;
21254;SDS011;10785;50.674;17.954;2023-02-12T13:00:26;6.07;;;2.85;;
21254;SDS011;10785;50.674;17.954;2023-02-12T13:03:09;4.75;;;3.28;;
21254;SDS011;10785;50.674;17.954;2023-02-12T13:06:07;4.38;;;2.50;;
21254;SDS011;10785;50.674;17.954;2023-02-12T13:08:48;2.83;;;2.65;;
21254;SDS011;10785;50.674;17.954;2023-02-12T13:11:30;3.28;;;2.92;;
21254;SDS011;10785;50.674;17.954;2023-02-12T13:14:07;4.72;;;3.50;;
21254;SDS011;10785;50.674;17.954;2023-02-12T13:16:53;2.58;;;2.47;;
21254;SDS011;10785;50.674;17.954;2023-02-12T13:19:31;3.95;;;3.60;;
21254;SDS011;10785;50.674;17.954;2023-02-12T13:22:10;3.33;;;3.13;;
21254;SDS011;10785;50.674;17.954;2023-02-12T13:24:44;2.10;;;1.63;;
21254;SDS011;10785;50.674;17.954;2023-02-12T13:27:17;1.98;;;1.85;;
21254;SDS011;10785;50.674;17.954;2023-02-12T13:29:50;2.90;;;2.60;;
21254;SDS011;10785;50.674;17.954;2023-02-12T13:32:22;3.08;;;2.75;;
21254;SDS011;10785;50.674;17.954;2023-02-12T13:34:55;2.45;;;2.25;;
21254;SDS011;10785;50.674;17.954;2023-02-12T13:37:30;2.45;;;2.30;;
21254;SDS011;10785;50.674;17.954;2023-02-12T13:40:05;4.13;;;3.50;;
21254;SDS011;10785;50.674;17.954;2023-02-12T13:42:38;18.10;;;1.77;;
21254;SDS011;10785;50.674;17.954;2023-02-12T13:48:09;7.90;;;3.50;;
21254;SDS011;10785;50.674;17.954;2023-02-12T13:50:54;5.03;;;3.45;;
21254;SDS011;10785;50.674;17.954;2023-02-12T13:53:29;6.60;;;4.30;;
21254;SDS011;10785;50.674;17.954;2023-02-12T13:56:15;2.85;;;2.40;;
21254;SDS011;10785;50.674;17.954;2023-02-12T13:58:54;4.00;;;3.17;;
21254;SDS011;10785;50.674;17.954;2023-02-12T14:01:36;5.22;;;4.53;;
21254;SDS011;10785;50.674;17.954;2023-02-12T14:07:03;2.58;;;2.38;;
21254;SDS011;10785;50.674;17.954;2023-02-12T14:09:34;2.75;;;2.55;;
21254;SDS011;10785;50.674;17.954;2023-02-12T14:12:06;1.92;;;1.83;;
21254;SDS011;10785;50.674;17.954;2023-02-12T14:14:39;5.32;;;4.35;;
21254;SDS011;10785;50.674;17.954;2023-02-12T14:20:20;7.63;;;3.80;;
21254;SDS011;10785;50.674;17.954;2023-02-12T14:22:59;4.05;;;3.55;;
21254;SDS011;10785;50.674;17.954;2023-02-12T14:25:45;9.02;;;6.20;;
21254;SDS011;10785;50.674;17.954;2023-02-12T14:28:26;6.88;;;4.40;;
21254;SDS011;10785;50.674;17.954;2023-02-12T14:33:50;25.52;;;4.00;;
21254;SDS011;10785;50.674;17.954;2023-02-12T14:36:42;3.42;;;3.25;;
21254;SDS011;10785;50.674;17.954;2023-02-12T14:45:03;2.13;;;2.03;;
21254;SDS011;10785;50.674;17.954;2023-02-12T14:50:18;5.97;;;4.00;;
21254;SDS011;10785;50.674;17.954;2023-02-12T14:53:04;4.88;;;3.38;;
21254;SDS011;10785;50.674;17.954;2023-02-12T14:55:41;3.80;;;3.00;;
21254;SDS011;10785;50.674;17.954;2023-02-12T14:58:15;5.93;;;5.45;;
21254;SDS011;10785;50.674;17.954;2023-02-12T15:00:46;3.58;;;3.28;;
21254;SDS011;10785;50.674;17.954;2023-02-12T15:03:28;7.13;;;3.33;;
21254;SDS011;10785;50.674;17.954;2023-02-12T15:06:09;2.25;;;2.10;;
21254;SDS011;10785;50.674;17.954;2023-02-12T15:08:48;7.15;;;3.00;;
21254;SDS011;10785;50.674;17.954;2023-02-12T15:11:24;4.63;;;4.30;;
21254;SDS011;10785;50.674;17.954;2023-02-12T15:13:58;8.38;;;2.53;;
21254;SDS011;10785;50.674;17.954;2023-02-12T15:16:32;6.85;;;3.83;;
21254;SDS011;10785;50.674;17.954;2023-02-12T15:19:09;4.90;;;4.50;;
21254;SDS011;10785;50.674;17.954;2023-02-12T15:21:47;2.35;;;2.25;;
21254;SDS011;10785;50.674;17.954;2023-02-12T15:24:22;5.45;;;3.58;;
21254;SDS011;10785;50.674;17.954;2023-02-12T15:26:52;4.47;;;3.80;;
21254;SDS011;10785;50.674;17.954;2023-02-12T15:29:23;3.97;;;3.53;;
21254;SDS011;10785;50.674;17.954;2023-02-12T15:31:54;9.60;;;5.13;;
21254;SDS011;10785;50.674;17.954;2023-02-12T15:34:25;4.97;;;4.55;;
21254;SDS011;10785;50.674;17.954;2023-02-12T15:36:57;8.35;;;7.50;;
21254;SDS011;10785;50.674;17.954;2023-02-12T15:39:30;7.38;;;4.47;;
21254;SDS011;10785;50.674;17.954;2023-02-12T15:42:21;6.03;;;5.60;;
21254;SDS011;10785;50.674;17.954;2023-02-12T15:44:51;7.53;;;6.80;;
21254;SDS011;10785;50.674;17.954;2023-02-12T15:47:32;18.02;;;7.65;;
21254;SDS011;10785;50.674;17.954;2023-02-12T15:50:01;12.60;;;6.22;;
21254;SDS011;10785;50.674;17.954;2023-02-12T15:52:31;12.32;;;7.15;;
21254;SDS011;10785;50.674;17.954;2023-02-12T15:55:04;5.93;;;5.47;;
21254;SDS011;10785;50.674;17.954;2023-02-12T15:57:39;11.68;;;6.97;;
21254;SDS011;10785;50.674;17.954;2023-02-12T16:00:09;11.23;;;6.47;;
21254;SDS011;10785;50.674;17.954;2023-02-12T16:02:50;9.93;;;5.55;;
21254;SDS011;10785;50.674;17.954;2023-02-12T16:05:19;19.90;;;9.27;;
21254;SDS011;10785;50.674;17.954;2023-02-12T16:07:49;6.75;;;4.40;;
21254;SDS011;10785;50.674;17.954;2023-02-12T16:13:17;6.07;;;5.57;;
21254;SDS011;10785;50.674;17.954;2023-02-12T16:16:02;10.52;;;4.88;;
21254;SDS011;10785;50.674;17.954;2023-02-12T16:18:33;5.68;;;4.95;;
21254;SDS011;10785;50.674;17.954;2023-02-12T16:21:02;9.40;;;6.70;;
21254;SDS011;10785;50.674;17.954;2023-02-12T16:23:33;15.20;;;6.60;;
21254;SDS011;10785;50.674;17.954;2023-02-12T16:26:02;9.98;;;6.43;;
21254;SDS011;10785;50.674;17.954;2023-02-12T16:28:33;6.18;;;5.68;;
21254;SDS011;10785;50.674;17.954;2023-02-12T16:31:06;7.97;;;4.85;;
21254;SDS011;10785;50.674;17.954;2023-02-12T16:33:40;32.00;;;7.65;;
21254;SDS011;10785;50.674;17.954;2023-02-12T16:36:14;16.20;;;6.95;;
21254;SDS011;10785;50.674;17.954;2023-02-12T16:38:57;7.93;;;6.03;;
21254;SDS011;10785;50.674;17.954;2023-02-12T16:41:28;3.80;;;3.40;;
21254;SDS011;10785;50.674;17.954;2023-02-12T16:46:53;38.28;;;18.38;;
21254;SDS011;10785;50.674;17.954;2023-02-12T16:49:23;19.02;;;16.38;;
21254;SDS011;10785;50.674;17.954;2023-02-12T16:51:54;29.48;;;14.48;;
21254;SDS011;10785;50.674;17.954;2023-02-12T16:54:48;16.67;;;14.02;;
21254;SDS011;10785;50.674;17.954;2023-02-12T16:57:17;17.40;;;14.35;;
21254;SDS011;10785;50.674;17.954;2023-02-12T16:59:47;32.75;;;16.73;;
21254;SDS011;10785;50.674;17.954;2023-02-12T17:02:15;33.85;;;18.10;;
21254;SDS011;10785;50.674;17.954;2023-02-12T17:04:44;23.52;;;13.60;;
21254;SDS011;10785;50.674;17.954;2023-02-12T17:07:17;29.50;;;13.43;;
21254;SDS011;10785;50.674;17.954;2023-02-12T17:09:47;7.03;;;5.82;;
21254;SDS011;10785;50.674;17.954;2023-02-12T17:12:15;9.65;;;8.10;;
21254;SDS011;10785;50.674;17.954;2023-02-12T17:14:44;14.38;;;8.80;;
21254;SDS011;10785;50.674;17.954;2023-02-12T17:17:14;13.85;;;8.82;;
21254;SDS011;10785;50.674;17.954;2023-02-12T17:19:43;19.00;;;8.38;;
21254;SDS011;10785;50.674;17.954;2023-02-12T17:22:15;15.05;;;8.80;;
21254;SDS011;10785;50.674;17.954;2023-02-12T17:24:48;15.30;;;9.13;;
21254;SDS011;10785;50.674;17.954;2023-02-12T17:27:19;8.60;;;7.90;;
21254;SDS011;10785;50.674;17.954;2023-02-12T17:29:49;8.30;;;7.15;;
21254;SDS011;10785;50.674;17.954;2023-02-12T17:32:17;10.70;;;7.68;;
21254;SDS011;10785;50.674;17.954;2023-02-12T17:34:46;12.63;;;8.23;;
21254;SDS011;10785;50.674;17.954;2023-02-12T17:37:15;12.90;;;7.68;;
21254;SDS011;10785;50.674;17.954;2023-02-12T17:39:44;22.20;;;7.25;;
21254;SDS011;10785;50.674;17.954;2023-02-12T17:42:13;7.47;;;6.85;;
21254;SDS011;10785;50.674;17.954;2023-02-12T17:44:42;15.90;;;8.18;;
21254;SDS011;10785;50.674;17.954;2023-02-12T17:47:12;11.27;;;8.70;;
21254;SDS011;10785;50.674;17.954;2023-02-12T17:49:41;5.72;;;5.22;;
21254;SDS011;10785;50.674;17.954;2023-02-12T17:52:09;14.60;;;6.82;;
21254;SDS011;10785;50.674;17.954;2023-02-12T17:54:38;8.55;;;6.90;;
21254;SDS011;10785;50.674;17.954;2023-02-12T17:57:07;12.00;;;10.02;;
21254;SDS011;10785;50.674;17.954;2023-02-12T17:59:41;18.85;;;8.52;;
21254;SDS011;10785;50.674;17.954;2023-02-12T18:02:11;8.02;;;5.90;;
21254;SDS011;10785;50.674;17.954;2023-02-12T18:04:40;12.80;;;8.82;;
21254;SDS011;10785;50.674;17.954;2023-02-12T18:07:09;13.23;;;8.68;;
21254;SDS011;10785;50.674;17.954;2023-02-12T18:09:40;15.98;;;8.82;;
21254;SDS011;10785;50.674;17.954;2023-02-12T18:12:09;10.35;;;8.25;;
21254;SDS011;10785;50.674;17.954;2023-02-12T18:14:37;13.73;;;8.00;;